Time,TemperatureF,DewpointF,PressureIn,WindDirection,WindDirectionDegrees,WindSpeedMPH,WindSpeedGustMPH,Humidity,HourlyPrecipIn,Conditions,Clouds,dailyrainin,SoftwareType,DateUTC
2013-01-11 00:04:00,3.7,-18.4,29.50,NNW,343,0.0,0.0,34,0.00,,---,0.00,VWS V13.01,2013-01-11 09:04:00,
2013-01-11 00:09:00,3.4,-18.7,29.50,NNW,343,0.0,0.0,34,0.00,,---,0.00,VWS V13.01,2013-01-11 09:09:00,
2013-01-11 00:14:00,4.3,-17.9,29.50,NNW,343,0.0,0.0,34,0.00,,---,0.00,VWS V13.01,2013-01-11 09:14:00,
2013-01-11 00:19:00,4.5,-17.7,29.50,NNW,343,0.0,0.0,34,0.00,,---,0.00,VWS V13.01,2013-01-11 09:19:00,
2013-01-11 00:24:00,3.7,-18.4,29.50,NNW,343,0.0,0.0,34,0.00,,---,0.00,VWS V13.01,2013-01-11 09:24:00,
2013-01-11 00:29:00,3.6,-18.5,29.50,NNW,343,0.0,0.0,34,0.00,,---,0.00,VWS V13.01,2013-01-11 09:29:00,
2013-01-11 00:34:00,3.0,-19.0,29.50,NNW,343,0.0,0.0,34,0.00,,---,0.00,VWS V13.01,2013-01-11 09:34:00,
2013-01-11 00:39:00,2.8,-19.1,29.50,NNW,343,0.0,0.0,34,0.00,,---,0.00,VWS V13.01,2013-01-11 09:39:00,
2013-01-11 00:44:00,3.0,-19.0,29.50,NNW,343,0.0,0.0,34,0.00,,---,0.00,VWS V13.01,2013-01-11 09:44:00,
2013-01-11 00:49:00,2.3,-19.6,29.50,NNW,343,0.0,0.0,34,0.00,,---,0.00,VWS V13.01,2013-01-11 09:49:00,
2013-01-11 00:54:00,1.8,-20.1,29.50,NNW,343,0.0,0.0,34,0.00,,---,0.00,VWS V13.01,2013-01-11 09:54:00,
2013-01-11 00:59:00,1.6,-20.3,29.50,NNW,343,0.0,0.0,34,0.00,,---,0.00,VWS V13.01,2013-01-11 09:59:00,
2013-01-11 01:04:00,2.3,-19.6,29.50,NNW,343,0.0,0.0,34,0.00,,---,0.00,VWS V13.01,2013-01-11 10:04:00,
2013-01-11 01:09:00,2.7,-19.3,29.50,NNW,343,0.0,0.0,34,0.00,,---,0.00,VWS V13.01,2013-01-11 10:09:00,
2013-01-11 01:14:00,1.6,-20.3,29.50,NNW,343,0.0,0.0,34,0.00,,---,0.00,VWS V13.01,2013-01-11 10:14:00,
2013-01-11 01:19:00,0.9,-20.9,29.50,NNW,343,0.0,0.0,34,0.00,,---,0.00,VWS V13.01,2013-01-11 10:19:00,
2013-01-11 01:24:00,0.3,-21.4,29.47,NNW,343,0.0,0.0,34,0.00,,---,0.00,VWS V13.01,2013-01-11 10:24:00,
2013-01-11 01:29:00,-0.2,-21.9,29.47,NNW,343,0.0,0.0,34,0.00,,---,0.00,VWS V13.01,2013-01-11 10:29:00,
2013-01-11 01:34:00,-0.9,-22.5,29.47,NNW,343,0.0,0.0,34,0.00,,---,0.00,VWS V13.01,2013-01-11 10:34:00,
2013-01-11 01:39:00,0.3,-21.4,29.47,NNW,343,0.0,0.0,34,0.00,,---,0.00,VWS V13.01,2013-01-11 10:39:00,
2013-01-11 01:44:00,0.1,-21.6,29.47,NNW,343,0.0,0.0,34,0.00,,---,0.00,VWS V13.01,2013-01-11 10:44:00,
2013-01-11 01:49:00,-0.9,-22.5,29.47,NNW,343,0.0,0.0,34,0.00,,---,0.00,VWS V13.01,2013-01-11 10:49:00,
2013-01-11 01:54:00,-1.8,-23.3,29.47,NNW,343,0.0,0.0,34,0.00,,---,0.00,VWS V13.01,2013-01-11 10:54:00,
2013-01-11 01:59:00,-0.9,-22.5,29.47,NNW,343,0.0,0.0,34,0.00,,---,0.00,VWS V13.01,2013-01-11 10:59:00,
2013-01-11 02:04:00,-1.1,-22.7,29.47,NNW,343,0.0,0.0,34,0.00,,---,0.00,VWS V13.01,2013-01-11 11:04:00,
2013-01-11 02:09:00,-2.2,-23.7,29.44,NNW,343,0.0,0.0,34,0.00,,---,0.00,VWS V13.01,2013-01-11 11:09:00,
2013-01-11 02:14:00,-2.0,-23.5,29.44,NNW,343,0.0,0.0,34,0.00,,---,0.00,VWS V13.01,2013-01-11 11:14:00,
2013-01-11 02:19:00,-1.8,-23.3,29.44,NNW,343,0.0,0.0,34,0.00,,---,0.00,VWS V13.01,2013-01-11 11:19:00,
2013-01-11 02:24:00,-2.0,-23.5,29.44,NNW,343,0.0,0.0,34,0.00,,---,0.00,VWS V13.01,2013-01-11 11:24:00,
2013-01-11 02:29:00,-2.2,-23.7,29.44,NNW,343,0.0,0.0,34,0.00,,---,0.00,VWS V13.01,2013-01-11 11:29:00,
2013-01-11 02:34:00,-2.7,-24.1,29.44,NNW,343,0.0,0.0,34,0.00,,---,0.00,VWS V13.01,2013-01-11 11:34:00,
2013-01-11 02:39:00,-3.1,-24.5,29.44,NNW,343,0.0,0.0,34,0.00,,---,0.00,VWS V13.01,2013-01-11 11:39:00,
2013-01-11 02:44:00,-3.1,-24.5,29.44,NNW,343,0.0,0.0,34,0.00,,---,0.00,VWS V13.01,2013-01-11 11:44:00,
2013-01-11 02:49:00,-3.1,-24.5,29.44,NNW,343,0.0,0.0,34,0.00,,---,0.00,VWS V13.01,2013-01-11 11:49:00,
2013-01-11 02:54:00,-3.5,-24.8,29.44,NNW,343,0.0,0.0,34,0.00,,---,0.00,VWS V13.01,2013-01-11 11:54:00,
2013-01-11 02:59:00,-3.5,-24.8,29.44,NNW,343,0.0,0.0,34,0.00,,---,0.00,VWS V13.01,2013-01-11 11:59:00,
2013-01-11 03:04:00,-3.1,-24.5,29.44,NNW,343,0.0,0.0,34,0.00,,---,0.00,VWS V13.01,2013-01-11 12:04:00,
2013-01-11 03:09:00,-3.1,-24.5,29.44,NNW,343,0.0,0.0,34,0.00,,---,0.00,VWS V13.01,2013-01-11 12:09:00,
2013-01-11 03:14:00,-3.1,-24.5,29.44,NNW,343,0.0,0.0,34,0.00,,---,0.00,VWS V13.01,2013-01-11 12:14:00,
2013-01-11 03:19:00,-3.1,-24.5,29.44,NNW,343,0.0,0.0,34,0.00,,---,0.00,VWS V13.01,2013-01-11 12:19:00,
2013-01-11 03:24:00,-2.7,-24.1,29.44,NNW,343,0.0,0.0,34,0.00,,---,0.00,VWS V13.01,2013-01-11 12:24:00,
2013-01-11 03:29:00,-2.6,-24.0,29.44,NNW,343,0.0,0.0,34,0.00,,---,0.00,VWS V13.01,2013-01-11 12:29:00,
2013-01-11 03:34:00,-2.6,-24.0,29.44,NNW,343,0.0,0.0,34,0.00,,---,0.00,VWS V13.01,2013-01-11 12:34:00,
2013-01-11 03:39:00,-2.6,-24.0,29.44,NNW,343,0.0,0.0,34,0.00,,---,0.00,VWS V13.01,2013-01-11 12:39:00,
2013-01-11 03:44:00,-2.2,-23.7,29.44,NNW,343,0.0,0.0,34,0.00,,---,0.00,VWS V13.01,2013-01-11 12:44:00,
2013-01-11 03:49:00,-2.2,-23.7,29.44,NNW,343,0.0,0.0,34,0.00,,---,0.00,VWS V13.01,2013-01-11 12:49:00,
2013-01-11 03:54:00,-1.8,-23.3,29.41,NNW,343,0.0,0.0,34,0.00,,---,0.00,VWS V13.01,2013-01-11 12:54:00,
2013-01-11 03:59:00,-1.8,-23.3,29.41,NNW,343,0.0,0.0,34,0.00,,---,0.00,VWS V13.01,2013-01-11 12:59:00,
2013-01-11 04:04:00,-1.5,-23.0,29.41,NNW,343,0.0,0.0,34,0.00,,---,0.00,VWS V13.01,2013-01-11 13:04:00,
2013-01-11 04:09:00,-1.3,-22.9,29.41,NNW,343,0.0,0.0,34,0.00,,---,0.00,VWS V13.01,2013-01-11 13:09:00,
2013-01-11 04:14:00,-1.1,-22.7,29.41,NNW,343,0.0,0.0,34,0.00,,---,0.00,VWS V13.01,2013-01-11 13:14:00,
2013-01-11 04:19:00,-1.1,-22.7,29.41,NNW,343,0.0,0.0,34,0.00,,---,0.00,VWS V13.01,2013-01-11 13:19:00,
2013-01-11 04:24:00,-0.9,-22.5,29.41,NNW,343,0.0,0.0,34,0.00,,---,0.00,VWS V13.01,2013-01-11 13:24:00,
2013-01-11 04:29:00,-0.6,-22.2,29.41,NNW,343,0.0,0.0,34,0.00,,---,0.00,VWS V13.01,2013-01-11 13:29:00,
2013-01-11 04:34:00,-0.4,-22.0,29.41,NNW,343,0.0,0.0,34,0.00,,---,0.00,VWS V13.01,2013-01-11 13:34:00,
2013-01-11 04:39:00,-0.2,-21.9,29.38,NNW,343,0.0,0.0,34,0.00,,---,0.00,VWS V13.01,2013-01-11 13:39:00,
2013-01-11 04:44:00,-0.2,-21.9,29.38,NNW,343,0.0,0.0,34,0.00,,---,0.00,VWS V13.01,2013-01-11 13:44:00,
2013-01-11 04:49:00,0.0,-21.7,29.38,NNW,343,0.0,0.0,34,0.00,,---,0.00,VWS V13.01,2013-01-11 13:49:00,
2013-01-11 04:54:00,0.0,-21.7,29.41,NNW,343,0.0,0.0,34,0.00,,---,0.00,VWS V13.01,2013-01-11 13:54:00,
2013-01-11 04:59:00,0.0,-21.7,29.41,NNW,343,0.0,0.0,34,0.00,,---,0.00,VWS V13.01,2013-01-11 13:59:00,
2013-01-11 05:04:00,0.0,-21.7,29.41,NNW,343,0.0,0.0,34,0.00,,---,0.00,VWS V13.01,2013-01-11 14:04:00,
2013-01-11 05:09:00,0.0,-21.7,29.41,NNW,343,0.0,0.0,34,0.00,,---,0.00,VWS V13.01,2013-01-11 14:09:00,
2013-01-11 05:14:00,0.0,-21.7,29.41,NNW,343,0.0,0.0,34,0.00,,---,0.00,VWS V13.01,2013-01-11 14:14:00,
2013-01-11 05:19:00,0.0,-21.7,29.41,NNW,343,0.0,0.0,34,0.00,,---,0.00,VWS V13.01,2013-01-11 14:19:00,
2013-01-11 05:24:00,0.3,-21.4,29.38,NNW,343,0.0,0.0,34,0.00,,---,0.00,VWS V13.01,2013-01-11 14:24:00,
2013-01-11 05:29:00,0.3,-21.4,29.38,NNW,343,0.0,0.0,34,0.00,,---,0.00,VWS V13.01,2013-01-11 14:29:00,
2013-01-11 05:34:00,0.7,-21.1,29.38,NNW,343,0.0,0.0,34,0.00,,---,0.00,VWS V13.01,2013-01-11 14:34:00,
2013-01-11 05:39:00,0.9,-20.9,29.41,NNW,343,0.0,0.0,34,0.00,,---,0.00,VWS V13.01,2013-01-11 14:39:00,
2013-01-11 05:44:00,1.0,-20.8,29.41,NNW,343,0.0,0.0,34,0.00,,---,0.00,VWS V13.01,2013-01-11 14:44:00,
2013-01-11 05:49:00,1.0,-20.8,29.41,NNW,343,0.0,0.0,34,0.00,,---,0.00,VWS V13.01,2013-01-11 14:49:00,
2013-01-11 05:54:00,1.2,-20.6,29.41,NNW,343,0.0,0.0,34,0.00,,---,0.00,VWS V13.01,2013-01-11 14:54:00,
2013-01-11 05:59:00,1.6,-20.3,29.41,NNW,343,0.0,0.0,34,0.00,,---,0.00,VWS V13.01,2013-01-11 14:59:00,
2013-01-11 06:04:00,1.9,-20.0,29.41,NNW,343,0.0,0.0,34,0.00,,---,0.00,VWS V13.01,2013-01-11 15:04:00,
2013-01-11 06:09:00,2.1,-19.8,29.41,NNW,343,0.0,0.0,34,0.00,,---,0.00,VWS V13.01,2013-01-11 15:09:00,
2013-01-11 06:14:00,2.5,-19.5,29.41,NNW,343,0.0,0.0,34,0.00,,---,0.00,VWS V13.01,2013-01-11 15:14:00,
2013-01-11 06:19:00,2.8,-19.1,29.41,NNW,343,0.0,0.0,34,0.00,,---,0.00,VWS V13.01,2013-01-11 15:19:00,
2013-01-11 06:24:00,3.2,-18.8,29.41,NNW,343,0.0,0.0,34,0.00,,---,0.00,VWS V13.01,2013-01-11 15:24:00,
2013-01-11 06:29:00,3.4,-18.7,29.41,NNW,343,0.0,0.0,34,0.00,,---,0.00,VWS V13.01,2013-01-11 15:29:00,
2013-01-11 06:34:00,3.7,-18.4,29.41,NNW,343,0.0,0.0,34,0.00,,---,0.00,VWS V13.01,2013-01-11 15:34:00,
2013-01-11 06:39:00,3.9,-18.2,29.41,NNW,343,0.0,0.0,34,0.00,,---,0.00,VWS V13.01,2013-01-11 15:39:00,
2013-01-11 06:44:00,4.1,-18.0,29.41,NNW,343,0.0,0.0,34,0.00,,---,0.00,VWS V13.01,2013-01-11 15:44:00,
2013-01-11 06:49:00,4.3,-17.9,29.41,NNW,343,0.0,0.0,34,0.00,,---,0.00,VWS V13.01,2013-01-11 15:49:00,
2013-01-11 06:54:00,4.5,-17.7,29.41,NNW,343,0.0,0.0,34,0.00,,---,0.00,VWS V13.01,2013-01-11 15:54:00,
2013-01-11 06:59:00,4.6,-17.5,29.41,NNW,343,0.0,0.0,34,0.00,,---,0.00,VWS V13.01,2013-01-11 15:59:00,
2013-01-11 07:04:00,4.6,-17.5,29.41,NNW,343,0.0,0.0,34,0.00,,---,0.00,VWS V13.01,2013-01-11 16:04:00,
2013-01-11 07:09:00,4.8,-17.4,29.41,NNW,343,0.0,0.0,34,0.00,,---,0.00,VWS V13.01,2013-01-11 16:09:00,
2013-01-11 07:14:00,4.8,-17.4,29.41,NNW,343,0.0,0.0,34,0.00,,---,0.00,VWS V13.01,2013-01-11 16:14:00,
2013-01-11 07:19:00,4.8,-17.4,29.41,NNW,343,0.0,0.0,34,0.00,,---,0.00,VWS V13.01,2013-01-11 16:19:00,
2013-01-11 07:24:00,5.0,-17.2,29.41,NNW,343,0.0,0.0,34,0.00,,---,0.00,VWS V13.01,2013-01-11 16:24:00,
2013-01-11 07:29:00,5.0,-17.2,29.41,NNW,343,0.0,0.0,34,0.00,,---,0.00,VWS V13.01,2013-01-11 16:29:00,
2013-01-11 07:34:00,5.0,-17.2,29.41,NNW,343,0.0,0.0,34,0.00,,---,0.00,VWS V13.01,2013-01-11 16:34:00,
2013-01-11 07:39:00,5.4,-16.9,29.41,NNW,343,0.0,0.0,34,0.00,,---,0.00,VWS V13.01,2013-01-11 16:39:00,
2013-01-11 07:44:00,5.5,-16.7,29.41,NNW,343,0.0,0.0,34,0.00,,---,0.00,VWS V13.01,2013-01-11 16:44:00,
2013-01-11 07:49:00,5.5,-16.7,29.41,NNW,343,0.0,0.0,34,0.00,,---,0.00,VWS V13.01,2013-01-11 16:49:00,
2013-01-11 07:54:00,5.5,-16.7,29.41,NNW,343,0.0,0.0,34,0.00,,---,0.00,VWS V13.01,2013-01-11 16:54:00,
2013-01-11 07:59:00,5.5,-16.7,29.41,NNW,343,0.0,0.0,34,0.00,,---,0.00,VWS V13.01,2013-01-11 16:59:00,
2013-01-11 08:04:00,5.5,-16.7,29.41,NNW,343,0.0,0.0,34,0.00,,---,0.00,VWS V13.01,2013-01-11 17:04:00,
2013-01-11 08:09:00,5.7,-16.6,29.41,NNW,343,0.0,0.0,34,0.00,,---,0.00,VWS V13.01,2013-01-11 17:09:00,
2013-01-11 08:14:00,5.9,-16.4,29.41,NNW,343,0.0,0.0,34,0.00,,---,0.00,VWS V13.01,2013-01-11 17:14:00,
2013-01-11 08:19:00,5.9,-16.4,29.41,NNW,343,0.0,0.0,34,0.00,,---,0.00,VWS V13.01,2013-01-11 17:19:00,
2013-01-11 08:24:00,6.1,-16.3,29.41,NNW,343,0.0,0.0,34,0.00,,---,0.00,VWS V13.01,2013-01-11 17:24:00,
2013-01-11 08:29:00,6.1,-16.3,29.41,NNW,343,0.0,0.0,34,0.00,,---,0.00,VWS V13.01,2013-01-11 17:29:00,
2013-01-11 08:34:00,6.4,-15.9,29.41,NNW,343,0.0,0.0,34,0.00,,---,0.00,VWS V13.01,2013-01-11 17:34:00,
2013-01-11 08:39:00,6.8,-15.6,29.44,NNW,343,0.0,0.0,34,0.00,,---,0.00,VWS V13.01,2013-01-11 17:39:00,
2013-01-11 08:44:00,7.0,-15.4,29.44,NNW,343,0.0,0.0,34,0.00,,---,0.00,VWS V13.01,2013-01-11 17:44:00,
2013-01-11 08:49:00,7.0,-15.4,29.44,NNW,343,0.0,0.0,34,0.00,,---,0.00,VWS V13.01,2013-01-11 17:49:00,
2013-01-11 08:54:00,7.2,-15.3,29.44,NNW,343,0.0,0.0,34,0.00,,---,0.00,VWS V13.01,2013-01-11 17:54:00,
2013-01-11 08:59:00,7.2,-15.3,29.44,NNW,343,0.0,0.0,34,0.00,,---,0.00,VWS V13.01,2013-01-11 17:59:00,
2013-01-11 09:04:00,7.2,-15.3,29.44,NNW,343,0.0,0.0,34,0.00,,---,0.00,VWS V13.01,2013-01-11 18:04:00,
2013-01-11 09:09:00,7.2,-15.3,29.44,NNW,343,0.0,0.0,34,0.00,,---,0.00,VWS V13.01,2013-01-11 18:09:00,
2013-01-11 09:14:00,7.2,-15.3,29.44,NNW,343,0.0,0.0,34,0.00,,---,0.00,VWS V13.01,2013-01-11 18:14:00,
2013-01-11 09:19:00,7.5,-15.0,29.44,NNW,343,0.0,0.0,34,0.00,,---,0.00,VWS V13.01,2013-01-11 18:19:00,
2013-01-11 09:24:00,7.5,-15.0,29.44,NNW,343,0.0,0.0,34,0.00,,---,0.00,VWS V13.01,2013-01-11 18:24:00,
2013-01-11 09:29:00,7.5,-15.0,29.44,NNW,343,0.0,0.0,34,0.00,,---,0.00,VWS V13.01,2013-01-11 18:29:00,
2013-01-11 09:34:00,7.5,-15.0,29.44,NNW,343,0.0,0.0,34,0.00,,---,0.00,VWS V13.01,2013-01-11 18:34:00,
2013-01-11 09:39:00,7.7,-14.8,29.47,NNW,343,0.0,0.0,34,0.00,,---,0.00,VWS V13.01,2013-01-11 18:39:00,
2013-01-11 09:44:00,7.7,-14.8,29.47,NNW,343,0.0,0.0,34,0.00,,---,0.00,VWS V13.01,2013-01-11 18:44:00,
2013-01-11 09:49:00,7.9,-14.6,29.47,NNW,343,0.0,0.0,34,0.00,,---,0.00,VWS V13.01,2013-01-11 18:49:00,
2013-01-11 09:54:00,7.9,-14.6,29.47,NNW,343,0.0,0.0,34,0.00,,---,0.00,VWS V13.01,2013-01-11 18:54:00,
2013-01-11 09:59:00,8.1,-14.5,29.47,NNW,343,0.0,0.0,34,0.00,,---,0.00,VWS V13.01,2013-01-11 18:59:00,
2013-01-11 10:04:00,8.2,-14.3,29.47,NNW,343,0.0,0.0,34,0.00,,---,0.00,VWS V13.01,2013-01-11 19:04:00,
2013-01-11 10:09:00,8.2,-14.3,29.47,NNW,341,0.0,0.0,34,0.00,,---,0.00,VWS V13.01,2013-01-11 19:09:00,
2013-01-11 10:14:00,8.2,-14.3,29.47,NNW,343,0.0,0.0,34,0.00,,---,0.00,VWS V13.01,2013-01-11 19:14:00,
2013-01-11 10:19:00,8.6,-14.0,29.47,NNW,343,0.0,0.0,34,0.00,,---,0.00,VWS V13.01,2013-01-11 19:19:00,
2013-01-11 10:24:00,8.4,-14.2,29.47,NNW,343,0.0,0.0,34,0.00,,---,0.00,VWS V13.01,2013-01-11 19:24:00,
2013-01-11 10:29:00,8.4,-14.2,29.47,NNW,343,0.0,0.0,34,0.00,,---,0.00,VWS V13.01,2013-01-11 19:29:00,
2013-01-11 10:34:00,8.6,-14.0,29.47,NNW,343,0.0,0.0,34,0.00,,---,0.00,VWS V13.01,2013-01-11 19:34:00,
2013-01-11 10:39:00,8.8,-13.9,29.47,NNW,343,0.0,0.0,34,0.00,,---,0.00,VWS V13.01,2013-01-11 19:39:00,
2013-01-11 10:44:00,9.0,-13.7,29.47,NNW,343,0.0,0.0,34,0.00,,---,0.00,VWS V13.01,2013-01-11 19:44:00,
2013-01-11 10:49:00,9.1,-13.5,29.47,NNW,343,0.0,0.0,34,0.00,,---,0.00,VWS V13.01,2013-01-11 19:49:00,
2013-01-11 10:54:00,9.3,-13.4,29.47,NNW,343,0.0,0.0,34,0.00,,---,0.00,VWS V13.01,2013-01-11 19:54:00,
2013-01-11 10:59:00,9.3,-13.4,29.47,NNW,343,0.0,0.0,34,0.00,,---,0.00,VWS V13.01,2013-01-11 19:59:00,
2013-01-11 11:04:00,9.5,-13.2,29.47,NNW,343,0.0,0.0,34,0.00,,---,0.00,VWS V13.01,2013-01-11 20:04:00,
2013-01-11 11:09:00,9.5,-13.2,29.47,NNW,343,0.0,0.0,34,0.00,,---,0.00,VWS V13.01,2013-01-11 20:09:00,
2013-01-11 11:14:00,9.7,-13.0,29.47,NNW,343,0.0,0.0,34,0.00,,---,0.00,VWS V13.01,2013-01-11 20:14:00,
2013-01-11 11:19:00,10.0,-12.7,29.47,NNW,343,0.0,0.0,34,0.00,,---,0.00,VWS V13.01,2013-01-11 20:19:00,
2013-01-11 11:24:00,10.0,-12.7,29.47,NNW,343,0.0,0.0,34,0.00,,---,0.00,VWS V13.01,2013-01-11 20:24:00,
2013-01-11 11:29:00,10.2,-12.6,29.47,NNW,343,0.0,0.0,34,0.00,,---,0.00,VWS V13.01,2013-01-11 20:29:00,
2013-01-11 11:34:00,10.2,-12.6,29.47,NNW,343,0.0,0.0,34,0.00,,---,0.00,VWS V13.01,2013-01-11 20:34:00,
2013-01-11 11:39:00,10.4,-12.4,29.47,NNW,343,0.0,0.0,34,0.00,,---,0.00,VWS V13.01,2013-01-11 20:39:00,
2013-01-11 11:44:00,10.8,-12.1,29.47,NNW,343,0.0,0.0,34,0.00,,---,0.00,VWS V13.01,2013-01-11 20:44:00,
2013-01-11 11:49:00,10.8,-12.1,29.47,NNW,343,0.0,0.0,34,0.00,,---,0.00,VWS V13.01,2013-01-11 20:49:00,
2013-01-11 11:54:00,11.1,-11.8,29.50,NNW,343,0.0,0.0,34,0.00,,---,0.00,VWS V13.01,2013-01-11 20:54:00,
2013-01-11 11:59:00,11.3,-11.6,29.50,NNW,343,0.0,0.0,34,0.00,,---,0.00,VWS V13.01,2013-01-11 20:59:00,
2013-01-11 12:04:00,11.5,-11.4,29.50,NNW,343,0.0,0.0,34,0.00,,---,0.00,VWS V13.01,2013-01-11 21:04:00,
2013-01-11 12:09:00,11.5,-11.4,29.50,NNW,343,0.0,0.0,34,0.00,,---,0.00,VWS V13.01,2013-01-11 21:09:00,
2013-01-11 12:14:00,11.5,-11.4,29.50,NNW,343,0.0,0.0,34,0.00,,---,0.00,VWS V13.01,2013-01-11 21:14:00,
2013-01-11 12:19:00,11.7,-11.3,29.50,NNW,343,0.0,0.0,34,0.00,,---,0.00,VWS V13.01,2013-01-11 21:19:00,
2013-01-11 12:24:00,11.7,-11.3,29.50,NNW,343,0.0,0.0,34,0.00,,---,0.00,VWS V13.01,2013-01-11 21:24:00,
2013-01-11 12:29:00,11.5,-11.4,29.50,NNW,343,0.0,0.0,34,0.00,,---,0.00,VWS V13.01,2013-01-11 21:29:00,
2013-01-11 12:34:00,11.5,-11.4,29.50,NNW,343,0.0,0.0,34,0.00,,---,0.00,VWS V13.01,2013-01-11 21:34:00,
2013-01-11 12:39:00,11.7,-11.3,29.50,NNW,343,0.0,0.0,34,0.00,,---,0.00,VWS V13.01,2013-01-11 21:39:00,
2013-01-11 12:44:00,11.8,-11.1,29.50,NNW,343,0.0,0.0,34,0.00,,---,0.00,VWS V13.01,2013-01-11 21:44:00,
2013-01-11 12:49:00,12.0,-11.0,29.50,NNW,343,0.0,0.0,34,0.00,,---,0.00,VWS V13.01,2013-01-11 21:49:00,
2013-01-11 12:54:00,12.2,-10.8,29.53,NNW,343,0.0,0.0,34,0.00,,---,0.00,VWS V13.01,2013-01-11 21:54:00,
2013-01-11 12:59:00,12.2,-10.8,29.53,NNW,343,0.0,0.0,34,0.00,,---,0.00,VWS V13.01,2013-01-11 21:59:00,
2013-01-11 13:04:00,12.2,-10.8,29.53,NNW,343,0.0,0.0,34,0.00,,---,0.00,VWS V13.01,2013-01-11 22:04:00,
2013-01-11 13:09:00,12.4,-10.6,29.53,NNW,343,0.0,0.0,34,0.00,,---,0.00,VWS V13.01,2013-01-11 22:09:00,
2013-01-11 13:14:00,12.6,-10.5,29.53,NNW,343,0.0,0.0,34,0.00,,---,0.00,VWS V13.01,2013-01-11 22:14:00,
2013-01-11 13:19:00,12.7,-10.3,29.53,NNW,343,0.0,0.0,34,0.00,,---,0.00,VWS V13.01,2013-01-11 22:19:00,
2013-01-11 13:24:00,12.7,-10.3,29.53,NNW,343,0.0,0.0,34,0.00,,---,0.00,VWS V13.01,2013-01-11 22:24:00,
2013-01-11 13:29:00,12.7,-10.3,29.53,NNW,343,0.0,0.0,34,0.00,,---,0.00,VWS V13.01,2013-01-11 22:29:00,
2013-01-11 13:34:00,12.7,-10.3,29.53,NNW,343,0.0,0.0,34,0.00,,---,0.00,VWS V13.01,2013-01-11 22:34:00,
2013-01-11 13:39:00,12.9,-10.1,29.53,NNW,343,0.0,0.0,34,0.00,,---,0.00,VWS V13.01,2013-01-11 22:39:00,
2013-01-11 13:44:00,12.7,-10.3,29.53,NNW,343,0.0,0.0,34,0.00,,---,0.00,VWS V13.01,2013-01-11 22:44:00,
2013-01-11 13:49:00,12.9,-10.1,29.53,NNW,343,0.0,0.0,34,0.00,,---,0.00,VWS V13.01,2013-01-11 22:49:00,
2013-01-11 13:54:00,13.1,-10.0,29.53,NNW,343,0.0,0.0,34,0.00,,---,0.00,VWS V13.01,2013-01-11 22:54:00,
2013-01-11 13:59:00,13.1,-10.0,29.53,NNW,343,0.0,0.0,34,0.00,,---,0.00,VWS V13.01,2013-01-11 22:59:00,
2013-01-11 14:04:00,13.3,-9.8,29.53,NNW,343,0.0,0.0,34,0.00,,---,0.00,VWS V13.01,2013-01-11 23:04:00,
2013-01-11 14:09:00,13.3,-9.8,29.56,NNW,343,0.0,0.0,34,0.00,,---,0.00,VWS V13.01,2013-01-11 23:09:00,
2013-01-11 14:14:00,13.3,-9.8,29.56,NNW,343,0.0,0.0,34,0.00,,---,0.00,VWS V13.01,2013-01-11 23:14:00,
2013-01-11 14:19:00,13.5,-9.7,29.56,NNW,343,0.0,0.0,34,0.00,,---,0.00,VWS V13.01,2013-01-11 23:19:00,
2013-01-11 14:24:00,13.5,-9.7,29.56,NNW,343,0.0,0.0,34,0.00,,---,0.00,VWS V13.01,2013-01-11 23:24:00,
2013-01-11 14:29:00,13.5,-9.7,29.56,NNW,343,0.0,0.0,34,0.00,,---,0.00,VWS V13.01,2013-01-11 23:29:00,
2013-01-11 14:34:00,13.5,-9.7,29.56,NNW,343,0.0,0.0,34,0.00,,---,0.00,VWS V13.01,2013-01-11 23:34:00,
2013-01-11 14:39:00,13.5,-9.7,29.56,NNW,343,0.0,0.0,34,0.00,,---,0.00,VWS V13.01,2013-01-11 23:39:00,
2013-01-11 14:44:00,13.6,-9.5,29.56,NNW,343,0.0,0.0,34,0.00,,---,0.00,VWS V13.01,2013-01-11 23:44:00,
2013-01-11 14:49:00,13.6,-9.5,29.56,NNW,343,0.0,0.0,34,0.00,,---,0.00,VWS V13.01,2013-01-11 23:49:00,
2013-01-11 14:54:00,13.6,-9.5,29.56,NNW,343,0.0,0.0,34,0.00,,---,0.00,VWS V13.01,2013-01-11 23:54:00,
2013-01-11 14:59:00,13.6,-9.5,29.56,NNW,343,0.0,0.0,34,0.00,,---,0.00,VWS V13.01,2013-01-11 23:59:00,
2013-01-11 15:04:00,13.6,-9.5,29.56,NNW,343,0.0,0.0,34,0.00,,---,0.00,VWS V13.01,2013-01-12 00:04:00,
2013-01-11 15:09:00,13.6,-9.5,29.56,NNW,343,0.0,0.0,34,0.00,,---,0.00,VWS V13.01,2013-01-12 00:09:00,
2013-01-11 15:14:00,13.6,-9.5,29.56,NNW,343,0.0,0.0,34,0.00,,---,0.00,VWS V13.01,2013-01-12 00:14:00,
2013-01-11 15:19:00,13.6,-9.5,29.56,NNW,343,0.0,0.0,34,0.00,,---,0.00,VWS V13.01,2013-01-12 00:19:00,
2013-01-11 15:24:00,13.8,-9.4,29.56,NNW,343,0.0,0.0,34,0.00,,---,0.00,VWS V13.01,2013-01-12 00:24:00,
2013-01-11 15:29:00,13.8,-9.4,29.56,NNW,343,0.0,0.0,34,0.00,,---,0.00,VWS V13.01,2013-01-12 00:29:00,
2013-01-11 15:34:00,13.8,-9.4,29.56,NNW,343,0.0,0.0,34,0.00,,---,0.00,VWS V13.01,2013-01-12 00:34:00,
2013-01-11 15:39:00,13.8,-9.4,29.59,NNW,343,0.0,0.0,34,0.00,,---,0.00,VWS V13.01,2013-01-12 00:39:00,
2013-01-11 15:44:00,13.8,-9.4,29.59,NNW,343,0.0,0.0,34,0.00,,---,0.00,VWS V13.01,2013-01-12 00:44:00,
2013-01-11 15:49:00,14.0,-5.3,29.59,NNW,343,0.0,0.0,41,0.00,,---,0.00,VWS V13.01,2013-01-12 00:49:00,
2013-01-11 15:54:00,14.2,-5.2,29.59,NNW,343,0.0,0.0,41,0.00,,---,0.00,VWS V13.01,2013-01-12 00:54:00,
2013-01-11 15:59:00,14.2,-5.2,29.59,NNW,343,0.0,0.0,41,0.00,,---,0.00,VWS V13.01,2013-01-12 00:59:00,
2013-01-11 16:04:00,14.2,-5.2,29.59,NNW,343,0.0,0.0,41,0.00,,---,0.00,VWS V13.01,2013-01-12 01:04:00,
2013-01-11 16:09:00,14.2,-5.2,29.59,NNW,343,0.0,0.0,41,0.00,,---,0.00,VWS V13.01,2013-01-12 01:09:00,
2013-01-11 16:14:00,14.2,-5.2,29.59,NNW,343,0.0,0.0,41,0.00,,---,0.00,VWS V13.01,2013-01-12 01:14:00,
2013-01-11 16:19:00,14.2,-5.2,29.59,NNW,343,0.0,0.0,41,0.00,,---,0.00,VWS V13.01,2013-01-12 01:19:00,
2013-01-11 16:24:00,14.2,-5.2,29.59,NNW,343,0.0,0.0,41,0.00,,---,0.00,VWS V13.01,2013-01-12 01:24:00,
2013-01-11 16:29:00,14.5,-4.4,29.59,NNW,343,0.0,0.0,42,0.00,,---,0.00,VWS V13.01,2013-01-12 01:29:00,
2013-01-11 16:34:00,14.5,-4.4,29.59,NNW,343,0.0,0.0,42,0.00,,---,0.00,VWS V13.01,2013-01-12 01:34:00,
2013-01-11 16:39:00,14.5,-4.9,29.59,NNW,343,0.0,0.0,41,0.00,,---,0.00,VWS V13.01,2013-01-12 01:39:00,
2013-01-11 16:44:00,14.5,-4.9,29.59,NNW,343,0.0,0.0,41,0.00,,---,0.00,VWS V13.01,2013-01-12 01:44:00,
2013-01-11 16:49:00,14.5,-4.4,29.59,NNW,343,0.0,0.0,42,0.00,,---,0.00,VWS V13.01,2013-01-12 01:49:00,
2013-01-11 16:54:00,14.5,-4.9,29.59,NNW,343,0.0,0.0,41,0.00,,---,0.00,VWS V13.01,2013-01-12 01:54:00,
2013-01-11 16:59:00,14.5,-4.9,29.59,NNW,343,0.0,0.0,41,0.00,,---,0.00,VWS V13.01,2013-01-12 01:59:00,
2013-01-11 17:04:00,14.5,-4.4,29.59,NNW,343,0.0,0.0,42,0.00,,---,0.00,VWS V13.01,2013-01-12 02:04:00,
2013-01-11 17:09:00,14.7,-4.2,29.62,NNW,343,0.0,0.0,42,0.00,,---,0.00,VWS V13.01,2013-01-12 02:09:00,
2013-01-11 17:14:00,14.7,-4.2,29.62,NNW,343,0.0,0.0,42,0.00,,---,0.00,VWS V13.01,2013-01-12 02:14:00,
2013-01-11 17:19:00,14.7,-4.2,29.62,NNW,343,0.0,0.0,42,0.00,,---,0.00,VWS V13.01,2013-01-12 02:19:00,
2013-01-11 17:24:00,14.7,-4.2,29.62,NNW,343,0.0,0.0,42,0.00,,---,0.00,VWS V13.01,2013-01-12 02:24:00,
2013-01-11 17:29:00,14.7,-4.2,29.62,NNW,343,0.0,0.0,42,0.00,,---,0.00,VWS V13.01,2013-01-12 02:29:00,
2013-01-11 17:34:00,14.7,-4.2,29.62,NNW,343,0.0,0.0,42,0.00,,---,0.00,VWS V13.01,2013-01-12 02:34:00,
2013-01-11 17:39:00,14.7,-4.2,29.62,NNW,343,0.0,0.0,42,0.00,,---,0.00,VWS V13.01,2013-01-12 02:39:00,
2013-01-11 17:44:00,14.7,-4.2,29.62,NNW,343,0.0,0.0,42,0.00,,---,0.00,VWS V13.01,2013-01-12 02:44:00,
2013-01-11 17:49:00,14.9,-4.0,29.62,NNW,343,0.0,0.0,42,0.00,,---,0.00,VWS V13.01,2013-01-12 02:49:00,
2013-01-11 17:54:00,14.9,-4.0,29.62,NNW,343,0.0,0.0,42,0.00,,---,0.00,VWS V13.01,2013-01-12 02:54:00,
2013-01-11 17:59:00,14.9,-3.5,29.62,NNW,343,0.0,0.0,43,0.00,,---,0.00,VWS V13.01,2013-01-12 02:59:00,
2013-01-11 18:04:00,15.1,-3.4,29.62,NNW,343,0.0,0.0,43,0.00,,---,0.00,VWS V13.01,2013-01-12 03:04:00,
2013-01-11 18:09:00,15.1,-3.4,29.62,NNW,343,0.0,0.0,43,0.00,,---,0.00,VWS V13.01,2013-01-12 03:09:00,
2013-01-11 18:14:00,15.1,-3.4,29.62,NNW,343,0.0,0.0,43,0.00,,---,0.00,VWS V13.01,2013-01-12 03:14:00,
2013-01-11 18:19:00,15.1,-3.4,29.62,NNW,343,0.0,0.0,43,0.00,,---,0.00,VWS V13.01,2013-01-12 03:19:00,
2013-01-11 18:24:00,15.1,-3.4,29.65,NNW,343,0.0,0.0,43,0.00,,---,0.00,VWS V13.01,2013-01-12 03:24:00,
2013-01-11 18:29:00,15.1,-3.4,29.65,NNW,343,0.0,0.0,43,0.00,,---,0.00,VWS V13.01,2013-01-12 03:29:00,
2013-01-11 18:33:00,15.1,-3.4,29.65,NNW,343,0.0,0.0,43,0.00,,---,0.00,VWS V13.01,2013-01-12 03:33:00,
2013-01-11 18:38:00,15.3,-3.2,29.65,NNW,344,0.0,0.0,43,0.00,,---,0.00,VWS V13.01,2013-01-12 03:38:00,
2013-01-11 18:43:00,15.3,-3.2,29.65,NNW,343,0.0,0.0,43,0.00,,---,0.00,VWS V13.01,2013-01-12 03:43:00,
2013-01-11 18:48:00,15.3,-3.2,29.65,NNW,343,0.0,0.0,43,0.00,,---,0.00,VWS V13.01,2013-01-12 03:48:00,
2013-01-11 18:53:00,15.3,-3.2,29.65,NNW,343,0.0,0.0,43,0.00,,---,0.00,VWS V13.01,2013-01-12 03:53:00,
2013-01-11 18:58:00,15.4,-2.6,29.65,NNW,343,0.0,0.0,44,0.00,,---,0.00,VWS V13.01,2013-01-12 03:58:00,
2013-01-11 19:03:00,15.3,-2.7,29.65,NNW,343,0.0,0.0,44,0.00,,---,0.00,VWS V13.01,2013-01-12 04:03:00,
2013-01-11 19:08:00,15.4,-2.6,29.65,NNW,343,0.0,0.0,44,0.00,,---,0.00,VWS V13.01,2013-01-12 04:08:00,
2013-01-11 19:13:00,15.4,-2.6,29.65,NNW,343,0.0,0.0,44,0.00,,---,0.00,VWS V13.01,2013-01-12 04:13:00,
2013-01-11 19:18:00,15.4,-2.6,29.65,NNW,343,0.0,0.0,44,0.00,,---,0.00,VWS V13.01,2013-01-12 04:18:00,
2013-01-11 19:23:00,15.4,-2.6,29.65,NNW,343,0.0,0.0,44,0.00,,---,0.00,VWS V13.01,2013-01-12 04:23:00,
2013-01-11 19:28:00,15.4,-2.6,29.65,NNW,343,0.0,0.0,44,0.00,,---,0.00,VWS V13.01,2013-01-12 04:28:00,
2013-01-11 19:33:00,15.4,-2.6,29.65,NNW,343,0.0,0.0,44,0.00,,---,0.00,VWS V13.01,2013-01-12 04:33:00,
2013-01-11 19:38:00,15.4,-2.6,29.65,NNW,343,0.0,0.0,44,0.00,,---,0.00,VWS V13.01,2013-01-12 04:38:00,
2013-01-11 19:43:00,15.6,-2.4,29.65,NNW,343,0.0,0.0,44,0.00,,---,0.00,VWS V13.01,2013-01-12 04:43:00,
2013-01-11 19:48:00,15.6,-2.4,29.65,NNW,343,0.0,0.0,44,0.00,,---,0.00,VWS V13.01,2013-01-12 04:48:00,
2013-01-11 19:53:00,15.8,-2.2,29.68,NNW,343,0.0,0.0,44,0.00,,---,0.00,VWS V13.01,2013-01-12 04:53:00,
2013-01-11 19:58:00,15.8,-2.2,29.68,NNW,343,0.0,0.0,44,0.00,,---,0.00,VWS V13.01,2013-01-12 04:58:00,
2013-01-11 20:00:00,15.8,-2.2,29.68,NNW,343,0.0,0.0,44,0.00,,---,0.00,VWS V13.01,2013-01-12 05:00:00,
2013-01-11 20:01:00,15.8,-2.2,29.68,NNW,343,0.0,0.0,44,0.00,,---,0.00,VWS V13.01,2013-01-12 05:01:00,
2013-01-11 20:06:00,15.8,-2.2,29.68,NNW,343,0.0,0.0,44,0.00,,---,0.00,VWS V13.01,2013-01-12 05:06:00,
2013-01-11 20:11:00,15.8,-2.2,29.68,NNW,343,0.0,0.0,44,0.00,,---,0.00,VWS V13.01,2013-01-12 05:11:00,
2013-01-11 20:16:00,15.8,-2.2,29.68,NNW,343,0.0,0.0,44,0.00,,---,0.00,VWS V13.01,2013-01-12 05:16:00,
2013-01-11 20:21:00,15.8,-2.2,29.68,NNW,343,0.0,0.0,44,0.00,,---,0.00,VWS V13.01,2013-01-12 05:21:00,
2013-01-11 20:26:00,15.8,-2.2,29.68,NNW,343,0.0,0.0,44,0.00,,---,0.00,VWS V13.01,2013-01-12 05:26:00,
2013-01-11 20:31:00,15.8,-2.2,29.68,NNW,343,0.0,0.0,44,0.00,,---,0.00,VWS V13.01,2013-01-12 05:31:00,
2013-01-11 20:36:00,15.4,-2.6,29.68,NNW,343,0.0,0.0,44,0.00,,---,0.00,VWS V13.01,2013-01-12 05:36:00,
2013-01-11 20:41:00,15.4,-2.6,29.68,NNW,343,0.0,0.0,44,0.00,,---,0.00,VWS V13.01,2013-01-12 05:41:00,
2013-01-11 20:46:00,15.3,-3.2,29.68,NNW,343,0.0,0.0,43,0.00,,---,0.00,VWS V13.01,2013-01-12 05:46:00,
2013-01-11 20:51:00,15.3,-2.7,29.68,NNW,343,0.0,0.0,44,0.00,,---,0.00,VWS V13.01,2013-01-12 05:51:00,
2013-01-11 20:56:00,15.3,-2.7,29.68,NNW,343,0.0,0.0,44,0.00,,---,0.00,VWS V13.01,2013-01-12 05:56:00,
2013-01-11 21:01:00,15.3,-2.7,29.68,NNW,343,0.0,0.0,44,0.00,,---,0.00,VWS V13.01,2013-01-12 06:01:00,
2013-01-11 21:06:00,15.3,-3.2,29.68,NNW,343,0.0,0.0,43,0.00,,---,0.00,VWS V13.01,2013-01-12 06:06:00,
2013-01-11 21:11:00,15.3,-3.2,29.71,NNW,343,0.0,0.0,43,0.00,,---,0.00,VWS V13.01,2013-01-12 06:11:00,
2013-01-11 21:16:00,15.4,-3.0,29.71,NNW,343,0.0,0.0,43,0.00,,---,0.00,VWS V13.01,2013-01-12 06:16:00,
2013-01-11 21:21:00,15.3,-3.2,29.71,NNW,343,0.0,0.0,43,0.00,,---,0.00,VWS V13.01,2013-01-12 06:21:00,
2013-01-11 21:26:00,15.4,-2.6,29.68,NNW,343,0.0,0.0,44,0.00,,---,0.00,VWS V13.01,2013-01-12 06:26:00,
2013-01-11 21:31:00,15.4,-2.6,29.68,NNW,343,0.0,0.0,44,0.00,,---,0.00,VWS V13.01,2013-01-12 06:31:00,
2013-01-11 21:36:00,15.3,-2.7,29.68,NNW,343,0.0,0.0,44,0.00,,---,0.00,VWS V13.01,2013-01-12 06:36:00,
2013-01-11 21:41:00,15.1,-3.4,29.71,NNW,345,0.0,0.0,43,0.00,,---,0.00,VWS V13.01,2013-01-12 06:41:00,
2013-01-11 21:46:00,15.1,-3.4,29.71,NNW,343,0.0,0.0,43,0.00,,---,0.00,VWS V13.01,2013-01-12 06:46:00,
2013-01-11 21:51:00,15.1,-2.9,29.71,NNW,343,0.0,0.0,44,0.00,,---,0.00,VWS V13.01,2013-01-12 06:51:00,
2013-01-11 21:56:00,15.3,-2.7,29.71,NNW,343,0.0,0.0,44,0.00,,---,0.00,VWS V13.01,2013-01-12 06:56:00,
2013-01-11 22:01:00,15.3,-3.2,29.71,NNW,343,0.0,0.0,43,0.00,,---,0.00,VWS V13.01,2013-01-12 07:01:00,
2013-01-11 22:06:00,15.3,-3.2,29.71,NNW,343,0.0,0.0,43,0.00,,---,0.00,VWS V13.01,2013-01-12 07:06:00,
2013-01-11 22:11:00,15.1,-3.4,29.68,NNW,343,0.0,0.0,43,0.00,,---,0.00,VWS V13.01,2013-01-12 07:11:00,
2013-01-11 22:16:00,15.3,-3.2,29.68,NNW,343,0.0,0.0,43,0.00,,---,0.00,VWS V13.01,2013-01-12 07:16:00,
2013-01-11 22:21:00,15.3,-3.2,29.68,NNW,343,0.0,0.0,43,0.00,,---,0.00,VWS V13.01,2013-01-12 07:21:00,
2013-01-11 22:26:00,15.3,-2.7,29.71,NNW,343,0.0,0.0,44,0.00,,---,0.00,VWS V13.01,2013-01-12 07:26:00,
2013-01-11 22:31:00,15.3,-2.7,29.71,NNW,343,0.0,0.0,44,0.00,,---,0.00,VWS V13.01,2013-01-12 07:31:00,
2013-01-11 22:36:00,15.3,-2.7,29.71,NNW,343,0.0,0.0,44,0.00,,---,0.00,VWS V13.01,2013-01-12 07:36:00,
2013-01-11 22:41:00,15.3,-3.2,29.71,NNW,343,0.0,0.0,43,0.00,,---,0.00,VWS V13.01,2013-01-12 07:41:00,
2013-01-11 22:46:00,15.3,-3.2,29.71,NNW,343,0.0,0.0,43,0.00,,---,0.00,VWS V13.01,2013-01-12 07:46:00,
2013-01-11 22:51:00,15.1,-3.4,29.71,NNW,343,0.0,0.0,43,0.00,,---,0.00,VWS V13.01,2013-01-12 07:51:00,
2013-01-11 22:56:00,15.1,-3.4,29.71,NNW,343,0.0,0.0,43,0.00,,---,0.00,VWS V13.01,2013-01-12 07:56:00,
2013-01-11 23:01:00,14.9,-4.0,29.71,NNW,343,0.0,0.0,42,0.00,,---,0.00,VWS V13.01,2013-01-12 08:01:00,
2013-01-11 23:06:00,14.5,-4.4,29.71,NNW,343,0.0,0.0,42,0.00,,---,0.00,VWS V13.01,2013-01-12 08:06:00,
2013-01-11 23:11:00,14.5,-4.4,29.71,NNW,343,0.0,0.0,42,0.00,,---,0.00,VWS V13.01,2013-01-12 08:11:00,
2013-01-11 23:16:00,14.7,-3.7,29.71,NNW,343,0.0,0.0,43,0.00,,---,0.00,VWS V13.01,2013-01-12 08:16:00,
2013-01-11 23:21:00,14.9,-3.5,29.71,NNW,343,0.0,0.0,43,0.00,,---,0.00,VWS V13.01,2013-01-12 08:21:00,
2013-01-11 23:26:00,14.7,-3.7,29.71,NNW,343,0.0,0.0,43,0.00,,---,0.00,VWS V13.01,2013-01-12 08:26:00,
2013-01-11 23:31:00,14.7,-3.7,29.71,NNW,343,0.0,0.0,43,0.00,,---,0.00,VWS V13.01,2013-01-12 08:31:00,
2013-01-11 23:36:00,14.7,-3.7,29.71,NNW,343,0.0,0.0,43,0.00,,---,0.00,VWS V13.01,2013-01-12 08:36:00,
2013-01-11 23:41:00,14.9,-3.5,29.71,NNW,343,0.0,0.0,43,0.00,,---,0.00,VWS V13.01,2013-01-12 08:41:00,
2013-01-11 23:46:00,14.9,-3.5,29.71,NNW,343,0.0,0.0,43,0.00,,---,0.00,VWS V13.01,2013-01-12 08:46:00,
2013-01-11 23:51:00,14.9,-3.5,29.71,NNW,343,0.0,0.0,43,0.00,,---,0.00,VWS V13.01,2013-01-12 08:51:00,
2013-01-11 23:56:00,15.1,-3.4,29.71,NNW,343,0.0,0.0,43,0.00,,---,0.00,VWS V13.01,2013-01-12 08:56:00,